^^
Grace C. Lehan Memorial Weather Station Historical Data
Daily Summary for October 09, 2021 Units:  Both    English   Metric
Daily Weekly Monthly Yearly
  High: Low: Average:
Temperature: 66.7 °F /  19.3 °C 57.6 °F /  14.2 °C 61.1 °F /  16.2 °C
Dew Point: 58.2 °F /  14.6 °C 53.1 °F /  11.7 °C 55.3 °F /  12.9 °C
Humidity: 91% 71.4% 82%
Wind Speed: 4.1mph /  6.6km/h - 0.6mph /  1km/h
Wind Gust: 12mph /  19.3km/h - -
Wind- - East
Pressure: 30.27 in /  1024.9 hPa 30.22 in /  1023.2 hPa -
Precipitation: 0.00 in /  0 mm    
 
 
Tabular Data for October 09, 2021
Time Temperature Dew Point Pressure Wind Wind Speed Wind Gust Humidity Rainfall Rate (Hourly) solar
00:00 58.2 °F /  14.6 °C 54.7 °F /  12.6 °C 30.22in /  1023.2hPa Calm     88% 0.00in /  0mm 0 W/m2
00:09 58.1 °F /  14.5 °C 54.6 °F /  12.6 °C 30.22in /  1023.2hPa Calm   2mph /  3.2km/h 88.3% 0.00in /  0mm 0 W/m2
00:14 58 °F /  14.4 °C 54.8 °F /  12.7 °C 30.22in /  1023.2hPa Calm   2mph /  3.2km/h 89% 0.00in /  0mm 0 W/m2
00:19 58 °F /  14.4 °C 54.8 °F /  12.7 °C 30.22in /  1023.2hPa Calm   2mph /  3.2km/h 89% 0.00in /  0mm 0 W/m2
00:24 58 °F /  14.4 °C 54.8 °F /  12.7 °C 30.22in /  1023.2hPa Calm   2mph /  3.2km/h 89% 0.00in /  0mm 0 W/m2
00:29 58 °F /  14.4 °C 54.9 °F /  12.7 °C 30.22in /  1023.2hPa NE 0.1mph /  0.2km/h 3mph /  4.8km/h 89.3% 0.00in /  0mm 0 W/m2
00:34 58 °F /  14.4 °C 54.9 °F /  12.7 °C 30.22in /  1023.2hPa NE 0.1mph /  0.2km/h 3mph /  4.8km/h 89.2% 0.00in /  0mm 0 W/m2
00:39 58 °F /  14.4 °C 54.7 °F /  12.6 °C 30.22in /  1023.2hPa Calm   2mph /  3.2km/h 89% 0.00in /  0mm 0 W/m2
00:44 57.9 °F /  14.4 °C 54.7 °F /  12.6 °C 30.22in /  1023.2hPa Calm   2mph /  3.2km/h 89% 0.00in /  0mm 0 W/m2
00:49 57.8 °F /  14.3 °C 54.6 °F /  12.6 °C 30.22in /  1023.2hPa Calm   2mph /  3.2km/h 89% 0.00in /  0mm 0 W/m2
00:54 57.7 °F /  14.3 °C 54.5 °F /  12.5 °C 30.22in /  1023.2hPa Calm   2mph /  3.2km/h 89% 0.00in /  0mm 0 W/m2
00:59 57.7 °F /  14.3 °C 54.6 °F /  12.6 °C 30.22in /  1023.2hPa Calm   2mph /  3.2km/h 89.3% 0.00in /  0mm 0 W/m2
01:04 57.6 °F /  14.2 °C 54.8 °F /  12.7 °C 30.22in /  1023.2hPa Calm   2mph /  3.2km/h 90.4% 0.00in /  0mm 0 W/m2
01:09 57.6 °F /  14.2 °C 54.9 °F /  12.7 °C 30.23in /  1023.6hPa Calm   1mph /  1.6km/h 90.6% 0.00in /  0mm 0 W/m2
01:14 57.6 °F /  14.2 °C 54.7 °F /  12.6 °C 30.23in /  1023.6hPa Calm   1mph /  1.6km/h 90% 0.00in /  0mm 0 W/m2
01:19 57.6 °F /  14.2 °C 54.7 °F /  12.6 °C 30.23in /  1023.6hPa Calm   1mph /  1.6km/h 90% 0.00in /  0mm 0 W/m2
01:24 57.7 °F /  14.3 °C 54.8 °F /  12.7 °C 30.23in /  1023.6hPa Calm   1mph /  1.6km/h 90% 0.00in /  0mm 0 W/m2
01:29 57.8 °F /  14.3 °C 54.9 °F /  12.7 °C 30.23in /  1023.6hPa Calm   1mph /  1.6km/h 90% 0.00in /  0mm 0 W/m2
01:34 57.9 °F /  14.4 °C 54.9 °F /  12.7 °C 30.23in /  1023.6hPa NE 0.1mph /  0.2km/h 2mph /  3.2km/h 89.7% 0.00in /  0mm 0 W/m2
01:39 58 °F /  14.4 °C 54.8 °F /  12.7 °C 30.23in /  1023.6hPa NE 0.1mph /  0.2km/h 2mph /  3.2km/h 89% 0.00in /  0mm 0 W/m2
01:44 58.1 °F /  14.5 °C 54.9 °F /  12.7 °C 30.23in /  1023.6hPa Calm   2mph /  3.2km/h 89% 0.00in /  0mm 0 W/m2
01:49 58.2 °F /  14.6 °C 55 °F /  12.8 °C 30.23in /  1023.6hPa Calm   2mph /  3.2km/h 89% 0.00in /  0mm 0 W/m2
01:54 58.4 °F /  14.7 °C 55.1 °F /  12.8 °C 30.23in /  1023.6hPa Calm   2mph /  3.2km/h 89% 0.00in /  0mm 0 W/m2
01:59 58.4 °F /  14.7 °C 55 °F /  12.8 °C 30.23in /  1023.6hPa Calm   2mph /  3.2km/h 88.4% 0.00in /  0mm 0 W/m2
02:04 58.4 °F /  14.7 °C 54.9 °F /  12.7 °C 30.23in /  1023.6hPa Calm   2mph /  3.2km/h 88% 0.00in /  0mm 0 W/m2
02:08 58.5 °F /  14.7 °C 55 °F /  12.8 °C 30.23in /  1023.6hPa Calm     88% 0.00in /  0mm 0 W/m2
02:30 58.7 °F /  14.8 °C 55.2 °F /  12.9 °C 30.23in /  1023.6hPa Calm     88% 0.00in /  0mm 0 W/m2
03:00 58.5 °F /  14.7 °C 54.7 °F /  12.6 °C 30.23in /  1023.6hPa Calm     87% 0.00in /  0mm 0 W/m2
03:30 58.4 °F /  14.7 °C 55.2 °F /  12.9 °C 30.23in /  1023.6hPa Calm   3mph /  4.8km/h 89% 0.00in /  0mm 0 W/m2
04:04 58.7 °F /  14.8 °C 54.8 °F /  12.7 °C 30.24in /  1023.9hPa Calm     87% 0.00in /  0mm 0 W/m2
04:09 58.7 °F /  14.8 °C 54.8 °F /  12.7 °C 30.24in /  1023.9hPa Calm   1mph /  1.6km/h 87% 0.00in /  0mm 0 W/m2
04:14 58.7 °F /  14.8 °C 54.9 °F /  12.7 °C 30.24in /  1023.9hPa Calm   1mph /  1.6km/h 87% 0.00in /  0mm 0 W/m2
04:19 58.8 °F /  14.9 °C 54.9 °F /  12.7 °C 30.24in /  1023.9hPa Calm   1mph /  1.6km/h 87% 0.00in /  0mm 0 W/m2
04:24 58.8 °F /  14.9 °C 54.9 °F /  12.7 °C 30.24in /  1023.9hPa Calm   1mph /  1.6km/h 87% 0.00in /  0mm 0 W/m2
04:29 58.8 °F /  14.9 °C 55 °F /  12.8 °C 30.24in /  1023.9hPa NE 0.3mph /  0.5km/h 4mph /  6.4km/h 87% 0.00in /  0mm 0 W/m2
04:34 58.8 °F /  14.9 °C 55 °F /  12.8 °C 30.24in /  1023.9hPa Calm   4mph /  6.4km/h 87% 0.00in /  0mm 0 W/m2
04:39 58.8 °F /  14.9 °C 55 °F /  12.8 °C 30.24in /  1023.9hPa NNE 0.6mph /  1km/h 6mph /  9.7km/h 87% 0.00in /  0mm 0 W/m2
04:44 58.8 °F /  14.9 °C 55 °F /  12.8 °C 30.24in /  1023.9hPa Calm   6mph /  9.7km/h 87% 0.00in /  0mm 0 W/m2
04:49 58.8 °F /  14.9 °C 55 °F /  12.8 °C 30.24in /  1023.9hPa NE 0.2mph /  0.3km/h 6mph /  9.7km/h 87% 0.00in /  0mm 0 W/m2
04:54 58.8 °F /  14.9 °C 55 °F /  12.8 °C 30.24in /  1023.9hPa NE 0.1mph /  0.2km/h 6mph /  9.7km/h 87% 0.00in /  0mm 0 W/m2
04:59 58.8 °F /  14.9 °C 55 °F /  12.8 °C 30.24in /  1023.9hPa Calm   6mph /  9.7km/h 87% 0.00in /  0mm 0 W/m2
05:04 58.8 °F /  14.9 °C 55 °F /  12.8 °C 30.24in /  1023.9hPa Calm   6mph /  9.7km/h 87% 0.00in /  0mm 0 W/m2
05:09 58.8 °F /  14.9 °C 55 °F /  12.8 °C 30.24in /  1023.9hPa Calm   1mph /  1.6km/h 87% 0.00in /  0mm 0 W/m2
05:14 58.8 °F /  14.9 °C 55 °F /  12.8 °C 30.24in /  1023.9hPa WNW 0.1mph /  0.2km/h 5mph /  8km/h 87% 0.00in /  0mm 0 W/m2
05:19 58.8 °F /  14.9 °C 55 °F /  12.8 °C 30.24in /  1023.9hPa NW 0.4mph /  0.6km/h 5mph /  8km/h 87% 0.00in /  0mm 0 W/m2
05:24 58.8 °F /  14.9 °C 54.9 °F /  12.7 °C 30.24in /  1023.9hPa Calm   5mph /  8km/h 87% 0.00in /  0mm 0 W/m2
05:29 58.7 °F /  14.8 °C 54.9 °F /  12.7 °C 30.25in /  1024.3hPa Calm   5mph /  8km/h 87% 0.00in /  0mm 0 W/m2
05:34 58.7 °F /  14.8 °C 54.9 °F /  12.7 °C 30.24in /  1023.9hPa Calm   5mph /  8km/h 87% 0.00in /  0mm 0 W/m2
05:39 58.7 °F /  14.8 °C 54.8 °F /  12.7 °C 30.24in /  1023.9hPa Calm     87% 0.00in /  0mm 0 W/m2
05:44 58.7 °F /  14.8 °C 55 °F /  12.8 °C 30.24in /  1023.9hPa North 0.4mph /  0.6km/h 5mph /  8km/h 87.4% 0.00in /  0mm 0 W/m2
05:49 58.7 °F /  14.8 °C 55.2 °F /  12.9 °C 30.24in /  1023.9hPa Calm   5mph /  8km/h 88% 0.00in /  0mm 0 W/m2
05:54 58.7 °F /  14.8 °C 55.2 °F /  12.9 °C 30.25in /  1024.3hPa NNW 0.1mph /  0.2km/h 5mph /  8km/h 88% 0.00in /  0mm 0 W/m2
05:59 58.7 °F /  14.8 °C 55.1 °F /  12.8 °C 30.25in /  1024.3hPa NNW 0.1mph /  0.2km/h 5mph /  8km/h 88% 0.00in /  0mm 0 W/m2
06:04 58.6 °F /  14.8 °C 55.1 °F /  12.8 °C 30.24in /  1023.9hPa Calm   5mph /  8km/h 88% 0.00in /  0mm 0 W/m2
06:09 58.6 °F /  14.8 °C 55.1 °F /  12.8 °C 30.24in /  1023.9hPa North 0.3mph /  0.5km/h 3mph /  4.8km/h 88% 0.00in /  0mm 0 W/m2
06:14 58.6 °F /  14.8 °C 55.1 °F /  12.8 °C 30.24in /  1023.9hPa Calm   3mph /  4.8km/h 88% 0.00in /  0mm 0 W/m2
06:19 58.6 °F /  14.8 °C 55.1 °F /  12.8 °C 30.24in /  1023.9hPa North 0.4mph /  0.6km/h 5mph /  8km/h 88% 0.00in /  0mm 0 W/m2
06:24 58.6 °F /  14.8 °C 55 °F /  12.8 °C 30.24in /  1023.9hPa Calm   5mph /  8km/h 88% 0.00in /  0mm 0 W/m2
06:29 58.5 °F /  14.7 °C 55 °F /  12.8 °C 30.24in /  1023.9hPa Calm   5mph /  8km/h 88% 0.00in /  0mm 0 W/m2
06:34 58.5 °F /  14.7 °C 54.9 °F /  12.7 °C 30.24in /  1023.9hPa Calm   5mph /  8km/h 88% 0.00in /  0mm 0 W/m2
06:39 58.4 °F /  14.7 °C 54.9 °F /  12.7 °C 30.24in /  1023.9hPa Calm     88% 0.00in /  0mm 0 W/m2
06:44 58.3 °F /  14.6 °C 55.1 °F /  12.8 °C 30.24in /  1023.9hPa Calm   1mph /  1.6km/h 88.8% 0.00in /  0mm 0 W/m2
06:49 58.3 °F /  14.6 °C 55.1 °F /  12.8 °C 30.24in /  1023.9hPa NNE 0.1mph /  0.2km/h 3mph /  4.8km/h 89% 0.00in /  0mm 0 W/m2
06:54 58.2 °F /  14.6 °C 55 °F /  12.8 °C 30.24in /  1023.9hPa Calm   3mph /  4.8km/h 89% 0.00in /  0mm 0 W/m2
06:59 58.2 °F /  14.6 °C 55 °F /  12.8 °C 30.24in /  1023.9hPa NNE 0.2mph /  0.3km/h 5mph /  8km/h 89% 0.00in /  0mm 5 W/m2
07:04 58.2 °F /  14.6 °C 54.9 °F /  12.7 °C 30.24in /  1023.9hPa Calm   5mph /  8km/h 89% 0.00in /  0mm 9 W/m2
07:09 58.1 °F /  14.5 °C 54.9 °F /  12.7 °C 30.24in /  1023.9hPa NNW 0.2mph /  0.3km/h 5mph /  8km/h 89% 0.00in /  0mm 18 W/m2
07:14 58 °F /  14.4 °C 54.8 °F /  12.7 °C 30.24in /  1023.9hPa NNE 0.3mph /  0.5km/h 5mph /  8km/h 89% 0.00in /  0mm 23 W/m2
07:19 57.9 °F /  14.4 °C 54.8 °F /  12.7 °C 30.25in /  1024.3hPa NNW 0.6mph /  1km/h 9mph /  14.5km/h 89.3% 0.00in /  0mm 26 W/m2
07:24 57.8 °F /  14.3 °C 54.9 °F /  12.7 °C 30.25in /  1024.3hPa NNW 0.1mph /  0.2km/h 9mph /  14.5km/h 90% 0.00in /  0mm 33 W/m2
07:29 57.8 °F /  14.3 °C 54.9 °F /  12.7 °C 30.25in /  1024.3hPa Calm   9mph /  14.5km/h 90% 0.00in /  0mm 39 W/m2
07:34 57.7 °F /  14.3 °C 54.8 °F /  12.7 °C 30.25in /  1024.3hPa Calm   9mph /  14.5km/h 90% 0.00in /  0mm 47 W/m2
07:39 57.8 °F /  14.3 °C 55 °F /  12.8 °C 30.25in /  1024.3hPa NNW 0.1mph /  0.2km/h 2mph /  3.2km/h 90.5% 0.00in /  0mm 47 W/m2
07:44 57.8 °F /  14.3 °C 55.1 °F /  12.8 °C 30.26in /  1024.6hPa Calm   2mph /  3.2km/h 90.8% 0.00in /  0mm 46 W/m2
07:49 57.8 °F /  14.3 °C 55.2 °F /  12.9 °C 30.26in /  1024.6hPa Calm   2mph /  3.2km/h 91% 0.00in /  0mm 46 W/m2
07:54 57.9 °F /  14.4 °C 55.3 °F /  12.9 °C 30.26in /  1024.6hPa Calm   2mph /  3.2km/h 91% 0.00in /  0mm 62 W/m2
07:59 58 °F /  14.4 °C 55.4 °F /  13 °C 30.26in /  1024.6hPa NNW 0.1mph /  0.2km/h 3mph /  4.8km/h 91% 0.00in /  0mm 65 W/m2
08:04 58.2 °F /  14.6 °C 55.6 °F /  13.1 °C 30.25in /  1024.3hPa Calm     91% 0.00in /  0mm 60 W/m2
08:09 58.3 °F /  14.6 °C 55.6 °F /  13.1 °C 30.25in /  1024.3hPa Calm     91% 0.00in /  0mm 90 W/m2
08:14 58.4 °F /  14.7 °C 55.8 °F /  13.2 °C 30.25in /  1024.3hPa Calm     91% 0.00in /  0mm 100 W/m2
08:19 58.7 °F /  14.8 °C 56.1 °F /  13.4 °C 30.25in /  1024.3hPa Calm     91% 0.00in /  0mm 111 W/m2
08:24 58.9 °F /  14.9 °C 56.2 °F /  13.4 °C 30.25in /  1024.3hPa Calm   1mph /  1.6km/h 90.6% 0.00in /  0mm 118 W/m2
08:29 59.2 °F /  15.1 °C 56.3 °F /  13.5 °C 30.26in /  1024.6hPa NNE 0.2mph /  0.3km/h 3mph /  4.8km/h 90.2% 0.00in /  0mm 123 W/m2
08:34 59.5 °F /  15.3 °C 56.4 °F /  13.6 °C 30.26in /  1024.6hPa NNE 0.3mph /  0.5km/h 5mph /  8km/h 89.8% 0.00in /  0mm 123 W/m2
08:39 59.7 °F /  15.4 °C 56.4 °F /  13.6 °C 30.26in /  1024.6hPa NE 0.3mph /  0.5km/h 5mph /  8km/h 89% 0.00in /  0mm 118 W/m2
08:44 59.9 °F /  15.5 °C 56.7 °F /  13.7 °C 30.26in /  1024.6hPa Calm   5mph /  8km/h 89% 0.00in /  0mm 107 W/m2
08:49 60.2 °F /  15.7 °C 56.9 °F /  13.8 °C 30.26in /  1024.6hPa NE 0.4mph /  0.6km/h 5mph /  8km/h 89% 0.00in /  0mm 109 W/m2
08:54 60.4 °F /  15.8 °C 56.9 °F /  13.8 °C 30.26in /  1024.6hPa NE 0.9mph /  1.4km/h 5mph /  8km/h 88.3% 0.00in /  0mm 109 W/m2
08:59 60.6 °F /  15.9 °C 57 °F /  13.9 °C 30.26in /  1024.6hPa NE 1mph /  1.6km/h 5mph /  8km/h 87.8% 0.00in /  0mm 105 W/m2
09:04 60.7 °F /  15.9 °C 56.7 °F /  13.7 °C 30.27in /  1024.9hPa ENE 0.3mph /  0.5km/h 5mph /  8km/h 86.7% 0.00in /  0mm 118 W/m2
09:09 60.8 °F /  16 °C 56.6 °F /  13.7 °C 30.27in /  1024.9hPa East 0.7mph /  1.1km/h 6mph /  9.7km/h 86% 0.00in /  0mm 120 W/m2
09:14 61 °F /  16.1 °C 56.8 °F /  13.8 °C 30.27in /  1024.9hPa NE 1.7mph /  2.7km/h 7mph /  11.3km/h 86% 0.00in /  0mm 141 W/m2
09:19 61.2 °F /  16.2 °C 56.7 °F /  13.7 °C 30.26in /  1024.6hPa NE 1.8mph /  2.9km/h 7mph /  11.3km/h 85.4% 0.00in /  0mm 141 W/m2
09:24 61.3 °F /  16.3 °C 56.7 °F /  13.7 °C 30.27in /  1024.9hPa ENE 1.9mph /  3.1km/h 7mph /  11.3km/h 84.6% 0.00in /  0mm 121 W/m2
09:29 61.5 °F /  16.4 °C 56.8 °F /  13.8 °C 30.27in /  1024.9hPa NE 0.6mph /  1km/h 7mph /  11.3km/h 84.7% 0.00in /  0mm 132 W/m2
09:34 61.7 °F /  16.5 °C 57.2 °F /  14 °C 30.27in /  1024.9hPa ENE 0.8mph /  1.3km/h 7mph /  11.3km/h 85% 0.00in /  0mm 148 W/m2
09:39 61.9 °F /  16.6 °C 57 °F /  13.9 °C 30.27in /  1024.9hPa East 2.1mph /  3.4km/h 6mph /  9.7km/h 84.1% 0.00in /  0mm 179 W/m2
09:44 62 °F /  16.7 °C 56.9 °F /  13.8 °C 30.27in /  1024.9hPa ENE 2.3mph /  3.7km/h 8mph /  12.9km/h 83.3% 0.00in /  0mm 274 W/m2
09:49 62.3 °F /  16.8 °C 57 °F /  13.9 °C 30.27in /  1024.9hPa ENE 3.6mph /  5.8km/h 11mph /  17.7km/h 82.6% 0.00in /  0mm 322 W/m2
09:54 62.7 °F /  17.1 °C 57.1 °F /  13.9 °C 30.27in /  1024.9hPa East 4mph /  6.4km/h 11mph /  17.7km/h 81.7% 0.00in /  0mm 332 W/m2
09:59 63.1 °F /  17.3 °C 57.2 °F /  14 °C 30.27in /  1024.9hPa East 1.7mph /  2.7km/h 11mph /  17.7km/h 81% 0.00in /  0mm 418 W/m2
10:04 63.8 °F /  17.7 °C 57.9 °F /  14.4 °C 30.27in /  1024.9hPa ENE 2.3mph /  3.7km/h 11mph /  17.7km/h 81.1% 0.00in /  0mm 496 W/m2
10:09 64.5 °F /  18.1 °C 58.1 °F /  14.5 °C 30.27in /  1024.9hPa ENE 1.3mph /  2.1km/h 10mph /  16.1km/h 79.6% 0.00in /  0mm 554 W/m2
10:14 65.2 °F /  18.4 °C 58.2 °F /  14.6 °C 30.26in /  1024.6hPa East 2.9mph /  4.7km/h 10mph /  16.1km/h 77.9% 0.00in /  0mm 677 W/m2
10:19 65.8 °F /  18.8 °C 57.9 °F /  14.4 °C 30.26in /  1024.6hPa East 4.1mph /  6.6km/h 10mph /  16.1km/h 75.7% 0.00in /  0mm 538 W/m2
10:24 65.8 °F /  18.8 °C 57.6 °F /  14.2 °C 30.26in /  1024.6hPa ENE 3mph /  4.8km/h 12mph /  19.3km/h 75% 0.00in /  0mm 246 W/m2
10:29 65.2 °F /  18.4 °C 57.3 °F /  14.1 °C 30.26in /  1024.6hPa East 1.8mph /  2.9km/h 12mph /  19.3km/h 75.4% 0.00in /  0mm 255 W/m2
10:34 64.8 °F /  18.2 °C 57.2 °F /  14 °C 30.26in /  1024.6hPa East 0.6mph /  1km/h 12mph /  19.3km/h 76.3% 0.00in /  0mm 229 W/m2
10:39 64.6 °F /  18.1 °C 57.6 °F /  14.2 °C 30.26in /  1024.6hPa East 0.5mph /  0.8km/h 4mph /  6.4km/h 77.9% 0.00in /  0mm 237 W/m2
10:44 64.7 °F /  18.2 °C 57.5 °F /  14.2 °C 30.26in /  1024.6hPa ENE 0.6mph /  1km/h 4mph /  6.4km/h 77.3% 0.00in /  0mm 239 W/m2
10:49 64.8 °F /  18.2 °C 57.6 °F /  14.2 °C 30.26in /  1024.6hPa ENE 1.2mph /  1.9km/h 7mph /  11.3km/h 77.5% 0.00in /  0mm 285 W/m2
10:54 64.9 °F /  18.3 °C 57.5 °F /  14.2 °C 30.26in /  1024.6hPa ENE 2.7mph /  4.3km/h 9mph /  14.5km/h 76.9% 0.00in /  0mm 294 W/m2
10:59 65 °F /  18.3 °C 57.3 °F /  14.1 °C 30.27in /  1024.9hPa East 1.7mph /  2.7km/h 9mph /  14.5km/h 76.2% 0.00in /  0mm 285 W/m2
11:04 65.1 °F /  18.4 °C 57.2 °F /  14 °C 30.27in /  1024.9hPa East 0.7mph /  1.1km/h 9mph /  14.5km/h 75.7% 0.00in /  0mm 214 W/m2
11:09 65.1 °F /  18.4 °C 57.1 °F /  13.9 °C 30.27in /  1024.9hPa East 1.1mph /  1.8km/h 6mph /  9.7km/h 75.2% 0.00in /  0mm 183 W/m2
11:14 65.2 °F /  18.4 °C 56.9 °F /  13.8 °C 30.27in /  1024.9hPa East 0.1mph /  0.2km/h 6mph /  9.7km/h 74.7% 0.00in /  0mm 148 W/m2
11:19 65.1 °F /  18.4 °C 57.1 °F /  13.9 °C 30.27in /  1024.9hPa East 1.2mph /  1.9km/h 6mph /  9.7km/h 75.3% 0.00in /  0mm 158 W/m2
11:24 65 °F /  18.3 °C 57.2 °F /  14 °C 30.27in /  1024.9hPa ENE 0.8mph /  1.3km/h 6mph /  9.7km/h 75.8% 0.00in /  0mm 200 W/m2
11:29 65 °F /  18.3 °C 57.1 °F /  13.9 °C 30.27in /  1024.9hPa ENE 1.8mph /  2.9km/h 6mph /  9.7km/h 75.6% 0.00in /  0mm 230 W/m2
11:34 64.9 °F /  18.3 °C 57 °F /  13.9 °C 30.27in /  1024.9hPa ENE 1.3mph /  2.1km/h 6mph /  9.7km/h 75.6% 0.00in /  0mm 236 W/m2
11:39 65.1 °F /  18.4 °C 57 °F /  13.9 °C 30.27in /  1024.9hPa NE 1.8mph /  2.9km/h 7mph /  11.3km/h 75.3% 0.00in /  0mm 232 W/m2
11:44 65.2 °F /  18.4 °C 57.1 °F /  13.9 °C 30.27in /  1024.9hPa NE 1.7mph /  2.7km/h 9mph /  14.5km/h 75% 0.00in /  0mm 206 W/m2
11:49 65.3 °F /  18.5 °C 57.3 °F /  14.1 °C 30.27in /  1024.9hPa ENE 0.4mph /  0.6km/h 9mph /  14.5km/h 75.3% 0.00in /  0mm 158 W/m2
11:54 65.4 °F /  18.6 °C 57.2 °F /  14 °C 30.27in /  1024.9hPa ENE 0.8mph /  1.3km/h 9mph /  14.5km/h 75% 0.00in /  0mm 151 W/m2
11:59 65.3 °F /  18.5 °C 57 °F /  13.9 °C 30.27in /  1024.9hPa East 1.5mph /  2.4km/h 9mph /  14.5km/h 74.6% 0.00in /  0mm 158 W/m2
12:09 64.9 °F /  18.3 °C 56.9 °F /  13.8 °C 30.27in /  1024.9hPa ESE 0.9mph /  1.4km/h 4mph /  6.4km/h 75.3% 0.00in /  0mm 216 W/m2
12:14 65 °F /  18.3 °C 57.1 °F /  13.9 °C 30.27in /  1024.9hPa NE 1.5mph /  2.4km/h 9mph /  14.5km/h 75.6% 0.00in /  0mm 178 W/m2
12:19 65.1 °F /  18.4 °C 56.8 °F /  13.8 °C 30.27in /  1024.9hPa East 2.1mph /  3.4km/h 9mph /  14.5km/h 74.4% 0.00in /  0mm 197 W/m2
12:24 65.2 °F /  18.4 °C 56.8 °F /  13.8 °C 30.26in /  1024.6hPa East 1.8mph /  2.9km/h 9mph /  14.5km/h 74.3% 0.00in /  0mm 262 W/m2
12:29 65.4 °F /  18.6 °C 57 °F /  13.9 °C 30.26in /  1024.6hPa East 0.2mph /  0.3km/h 9mph /  14.5km/h 74.2% 0.00in /  0mm 246 W/m2
12:34 65.6 °F /  18.7 °C 57.2 °F /  14 °C 30.26in /  1024.6hPa ENE 0.3mph /  0.5km/h 9mph /  14.5km/h 74.3% 0.00in /  0mm 206 W/m2
12:39 65.8 °F /  18.8 °C 57 °F /  13.9 °C 30.26in /  1024.6hPa ENE 0.4mph /  0.6km/h 4mph /  6.4km/h 73.4% 0.00in /  0mm 190 W/m2
12:44 65.8 °F /  18.8 °C 57 °F /  13.9 °C 30.26in /  1024.6hPa East 0.9mph /  1.4km/h 4mph /  6.4km/h 73.1% 0.00in /  0mm 204 W/m2
12:49 65.8 °F /  18.8 °C 57.1 °F /  13.9 °C 30.25in /  1024.3hPa ENE 2.6mph /  4.2km/h 7mph /  11.3km/h 73.4% 0.00in /  0mm 221 W/m2
12:54 65.9 °F /  18.8 °C 57.1 °F /  13.9 °C 30.25in /  1024.3hPa ENE 2.1mph /  3.4km/h 7mph /  11.3km/h 73.3% 0.00in /  0mm 216 W/m2
12:59 66 °F /  18.9 °C 57.3 °F /  14.1 °C 30.25in /  1024.3hPa ENE 2.3mph /  3.7km/h 12mph /  19.3km/h 73.6% 0.00in /  0mm 241 W/m2
13:04 65.9 °F /  18.8 °C 56.9 °F /  13.8 °C 30.25in /  1024.3hPa ENE 0.7mph /  1.1km/h 12mph /  19.3km/h 72.8% 0.00in /  0mm 257 W/m2
13:09 65.9 °F /  18.8 °C 56.9 °F /  13.8 °C 30.25in /  1024.3hPa ENE 2.7mph /  4.3km/h 7mph /  11.3km/h 72.6% 0.00in /  0mm 260 W/m2
13:14 66 °F /  18.9 °C 57.3 °F /  14.1 °C 30.25in /  1024.3hPa East 1.1mph /  1.8km/h 7mph /  11.3km/h 73.4% 0.00in /  0mm 360 W/m2
13:19 66.3 °F /  19.1 °C 57.8 °F /  14.3 °C 30.25in /  1024.3hPa ENE 0.3mph /  0.5km/h 7mph /  11.3km/h 74.1% 0.00in /  0mm 267 W/m2
13:24 66.6 °F /  19.2 °C 57.6 °F /  14.2 °C 30.25in /  1024.3hPa ENE 0.8mph /  1.3km/h 7mph /  11.3km/h 72.8% 0.00in /  0mm 237 W/m2
13:29 66.7 °F /  19.3 °C 57.6 °F /  14.2 °C 30.25in /  1024.3hPa ENE 2.8mph /  4.5km/h 8mph /  12.9km/h 72.5% 0.00in /  0mm 192 W/m2
13:34 66.6 °F /  19.2 °C 57.2 °F /  14 °C 30.25in /  1024.3hPa East 2.1mph /  3.4km/h 8mph /  12.9km/h 71.7% 0.00in /  0mm 200 W/m2
13:39 66.4 °F /  19.1 °C 57.1 °F /  13.9 °C 30.25in /  1024.3hPa ENE 1.2mph /  1.9km/h 6mph /  9.7km/h 72% 0.00in /  0mm 199 W/m2
13:44 66.3 °F /  19.1 °C 57.1 °F /  13.9 °C 30.25in /  1024.3hPa ENE 0.5mph /  0.8km/h 6mph /  9.7km/h 72.2% 0.00in /  0mm 165 W/m2
13:49 66.3 °F /  19.1 °C 57.2 °F /  14 °C 30.25in /  1024.3hPa East 0.4mph /  0.6km/h 6mph /  9.7km/h 72.6% 0.00in /  0mm 134 W/m2
13:54 66.1 °F /  18.9 °C 56.6 °F /  13.7 °C 30.25in /  1024.3hPa East 1.3mph /  2.1km/h 7mph /  11.3km/h 71.4% 0.00in /  0mm 123 W/m2
13:59 65.9 °F /  18.8 °C 56.6 °F /  13.7 °C 30.25in /  1024.3hPa ENE 2.8mph /  4.5km/h 9mph /  14.5km/h 71.9% 0.00in /  0mm 104 W/m2
14:04 65.7 °F /  18.7 °C 56.4 °F /  13.6 °C 30.25in /  1024.3hPa ENE 0.7mph /  1.1km/h 9mph /  14.5km/h 72% 0.00in /  0mm 77 W/m2
14:09 65.5 °F /  18.6 °C 56.3 °F /  13.5 °C 30.25in /  1024.3hPa ENE 0.3mph /  0.5km/h 7mph /  11.3km/h 72.3% 0.00in /  0mm 86 W/m2
14:10 65.4 °F /  18.6 °C 56.9 °F /  13.8 °C 30.25in /  1024.3hPa Calm   7mph /  11.3km/h 74% 0.00in /  0mm 83 W/m2
14:30 65.5 °F /  18.6 °C 57 °F /  13.9 °C 30.24in /  1023.9hPa Calm   7mph /  11.3km/h 74% 0.00in /  0mm 94 W/m2
15:00 64.9 °F /  18.3 °C 56.8 °F /  13.8 °C 30.23in /  1023.6hPa Calm   7mph /  11.3km/h 75% 0.00in /  0mm 54 W/m2
15:30 64.1 °F /  17.8 °C 56.4 °F /  13.6 °C 30.24in /  1023.9hPa ENE 1mph /  1.6km/h 10mph /  16.1km/h 76% 0.00in /  0mm 31 W/m2
16:04 63.5 °F /  17.5 °C 55.8 °F /  13.2 °C 30.23in /  1023.6hPa ENE 2.7mph /  4.3km/h 5mph /  8km/h 76% 0.00in /  0mm 83 W/m2
16:09 63.5 °F /  17.5 °C 55.8 °F /  13.2 °C 30.23in /  1023.6hPa ENE 1.1mph /  1.8km/h 7mph /  11.3km/h 76% 0.00in /  0mm 86 W/m2
16:14 63.5 °F /  17.5 °C 55.9 °F /  13.3 °C 30.23in /  1023.6hPa East 1.1mph /  1.8km/h 7mph /  11.3km/h 76.2% 0.00in /  0mm 88 W/m2
16:19 63.5 °F /  17.5 °C 55.9 °F /  13.3 °C 30.23in /  1023.6hPa ENE 0.6mph /  1km/h 7mph /  11.3km/h 76% 0.00in /  0mm 88 W/m2
16:24 63.6 °F /  17.6 °C 55.8 °F /  13.2 °C 30.23in /  1023.6hPa ENE 1.6mph /  2.6km/h 7mph /  11.3km/h 75.8% 0.00in /  0mm 72 W/m2
16:29 63.5 °F /  17.5 °C 55.7 °F /  13.2 °C 30.24in /  1023.9hPa ENE 1.6mph /  2.6km/h 7mph /  11.3km/h 75.7% 0.00in /  0mm 72 W/m2
16:34 63.5 °F /  17.5 °C 55.7 °F /  13.2 °C 30.24in /  1023.9hPa East 0.6mph /  1km/h 7mph /  11.3km/h 75.8% 0.00in /  0mm 37 W/m2
16:39 63.5 °F /  17.5 °C 55.8 °F /  13.2 °C 30.24in /  1023.9hPa East 0.7mph /  1.1km/h 4mph /  6.4km/h 76% 0.00in /  0mm 40 W/m2
16:44 63.4 °F /  17.4 °C 55.7 °F /  13.2 °C 30.24in /  1023.9hPa ENE 1.2mph /  1.9km/h 5mph /  8km/h 76% 0.00in /  0mm 35 W/m2
16:49 63.3 °F /  17.4 °C 55.7 °F /  13.2 °C 30.24in /  1023.9hPa East 2.1mph /  3.4km/h 7mph /  11.3km/h 76% 0.00in /  0mm 32 W/m2
16:54 63.2 °F /  17.3 °C 55.6 °F /  13.1 °C 30.24in /  1023.9hPa East 0.3mph /  0.5km/h 7mph /  11.3km/h 76% 0.00in /  0mm 28 W/m2
16:59 63.2 °F /  17.3 °C 55.7 °F /  13.2 °C 30.24in /  1023.9hPa ESE 0.4mph /  0.6km/h 7mph /  11.3km/h 76.5% 0.00in /  0mm 26 W/m2
17:04 63.1 °F /  17.3 °C 55.5 °F /  13.1 °C 30.25in /  1024.3hPa East 0.2mph /  0.3km/h 7mph /  11.3km/h 76.1% 0.00in /  0mm 25 W/m2
17:09 63.1 °F /  17.3 °C 55.8 °F /  13.2 °C 30.25in /  1024.3hPa East 0.2mph /  0.3km/h 3mph /  4.8km/h 77% 0.00in /  0mm 19 W/m2
17:14 63 °F /  17.2 °C 55.7 °F /  13.2 °C 30.25in /  1024.3hPa ENE 0.2mph /  0.3km/h 4mph /  6.4km/h 77% 0.00in /  0mm 19 W/m2
17:19 62.9 °F /  17.2 °C 55.6 °F /  13.1 °C 30.25in /  1024.3hPa ENE 0.1mph /  0.2km/h 4mph /  6.4km/h 77% 0.00in /  0mm 18 W/m2
17:24 62.9 °F /  17.2 °C 55.6 °F /  13.1 °C 30.24in /  1023.9hPa ENE 0.1mph /  0.2km/h 4mph /  6.4km/h 77% 0.00in /  0mm 19 W/m2
17:29 62.7 °F /  17.1 °C 55.4 °F /  13 °C 30.24in /  1023.9hPa ESE 0.1mph /  0.2km/h 4mph /  6.4km/h 77% 0.00in /  0mm 18 W/m2
17:34 62.7 °F /  17.1 °C 55.4 °F /  13 °C 30.24in /  1023.9hPa Calm   4mph /  6.4km/h 77% 0.00in /  0mm 21 W/m2
17:39 62.6 °F /  17 °C 55.3 °F /  12.9 °C 30.24in /  1023.9hPa East 1mph /  1.6km/h 6mph /  9.7km/h 77% 0.00in /  0mm 32 W/m2
17:44 62.5 °F /  16.9 °C 55.2 °F /  12.9 °C 30.24in /  1023.9hPa East 0.1mph /  0.2km/h 6mph /  9.7km/h 77% 0.00in /  0mm 33 W/m2
17:49 62.5 °F /  16.9 °C 55.2 °F /  12.9 °C 30.24in /  1023.9hPa NE 0.5mph /  0.8km/h 6mph /  9.7km/h 77% 0.00in /  0mm 25 W/m2
17:54 62.5 °F /  16.9 °C 55.2 °F /  12.9 °C 30.25in /  1024.3hPa NE 0.1mph /  0.2km/h 6mph /  9.7km/h 77.1% 0.00in /  0mm 14 W/m2
17:59 62.4 °F /  16.9 °C 55.1 °F /  12.8 °C 30.25in /  1024.3hPa Calm   6mph /  9.7km/h 77.1% 0.00in /  0mm 11 W/m2
18:04 62.3 °F /  16.8 °C 55 °F /  12.8 °C 30.25in /  1024.3hPa NE 0.2mph /  0.3km/h 6mph /  9.7km/h 77% 0.00in /  0mm 7 W/m2
18:09 62.3 °F /  16.8 °C 54.9 °F /  12.7 °C 30.25in /  1024.3hPa NE 1.2mph /  1.9km/h 10mph /  16.1km/h 76.7% 0.00in /  0mm 5 W/m2
18:14 62.2 °F /  16.8 °C 54.8 °F /  12.7 °C 30.25in /  1024.3hPa ENE 0.4mph /  0.6km/h 10mph /  16.1km/h 76.8% 0.00in /  0mm 5 W/m2
18:19 62.2 °F /  16.8 °C 54.8 °F /  12.7 °C 30.25in /  1024.3hPa ENE 0.1mph /  0.2km/h 10mph /  16.1km/h 76.7% 0.00in /  0mm 0 W/m2
18:24 62.1 °F /  16.7 °C 54.5 °F /  12.5 °C 30.25in /  1024.3hPa East 1.6mph /  2.6km/h 10mph /  16.1km/h 76.1% 0.00in /  0mm 0 W/m2
18:29 62 °F /  16.7 °C 54.4 °F /  12.4 °C 30.25in /  1024.3hPa East 0.2mph /  0.3km/h 10mph /  16.1km/h 76% 0.00in /  0mm 0 W/m2
18:32 62 °F /  16.7 °C 54.4 °F /  12.4 °C 30.25in /  1024.3hPa Calm   10mph /  16.1km/h 76% 0.00in /  0mm 0 W/m2
19:00 61.6 °F /  16.4 °C 53.6 °F /  12 °C 30.26in /  1024.6hPa Calm   6mph /  9.7km/h 75% 0.00in /  0mm 0 W/m2
19:30 61.4 °F /  16.3 °C 53.8 °F /  12.1 °C 30.26in /  1024.6hPa Calm   6mph /  9.7km/h 76% 0.00in /  0mm 0 W/m2
20:04 61.1 °F /  16.2 °C 53.1 °F /  11.7 °C 30.26in /  1024.6hPa Calm     75% 0.00in /  0mm 0 W/m2
20:09 61.1 °F /  16.2 °C 53.3 °F /  11.8 °C 30.26in /  1024.6hPa ENE 0.1mph /  0.2km/h 2mph /  3.2km/h 75.5% 0.00in /  0mm 0 W/m2
20:14 61 °F /  16.1 °C 53.1 °F /  11.7 °C 30.27in /  1024.9hPa NE 0.8mph /  1.3km/h 6mph /  9.7km/h 75.3% 0.00in /  0mm 0 W/m2
20:19 61 °F /  16.1 °C 53.2 °F /  11.8 °C 30.26in /  1024.6hPa ENE 1mph /  1.6km/h 6mph /  9.7km/h 75.7% 0.00in /  0mm 0 W/m2
20:24 60.9 °F /  16.1 °C 53.2 °F /  11.8 °C 30.26in /  1024.6hPa East 1.2mph /  1.9km/h 9mph /  14.5km/h 75.8% 0.00in /  0mm 0 W/m2
20:29 60.9 °F /  16.1 °C 53.2 °F /  11.8 °C 30.26in /  1024.6hPa NE 0.8mph /  1.3km/h 9mph /  14.5km/h 75.9% 0.00in /  0mm 0 W/m2
20:34 60.8 °F /  16 °C 53.2 °F /  11.8 °C 30.26in /  1024.6hPa NE 1.1mph /  1.8km/h 9mph /  14.5km/h 76% 0.00in /  0mm 0 W/m2
20:39 60.8 °F /  16 °C 53.2 °F /  11.8 °C 30.26in /  1024.6hPa ENE 0.3mph /  0.5km/h 4mph /  6.4km/h 76% 0.00in /  0mm 0 W/m2
20:44 60.7 °F /  15.9 °C 53.1 °F /  11.7 °C 30.26in /  1024.6hPa ENE 1.5mph /  2.4km/h 7mph /  11.3km/h 76% 0.00in /  0mm 0 W/m2
20:49 60.7 °F /  15.9 °C 53.2 °F /  11.8 °C 30.26in /  1024.6hPa East 0.5mph /  0.8km/h 7mph /  11.3km/h 76.2% 0.00in /  0mm 0 W/m2
20:54 60.6 °F /  15.9 °C 53.3 °F /  11.8 °C 30.26in /  1024.6hPa East 0.6mph /  1km/h 7mph /  11.3km/h 76.8% 0.00in /  0mm 0 W/m2
20:59 60.6 °F /  15.9 °C 53.3 °F /  11.8 °C 30.26in /  1024.6hPa Calm   7mph /  11.3km/h 77% 0.00in /  0mm 0 W/m2
21:04 60.5 °F /  15.8 °C 53.3 °F /  11.8 °C 30.27in /  1024.9hPa Calm   7mph /  11.3km/h 77% 0.00in /  0mm 0 W/m2
21:09 60.5 °F /  15.8 °C 53.3 °F /  11.8 °C 30.27in /  1024.9hPa NE 0.5mph /  0.8km/h 5mph /  8km/h 77% 0.00in /  0mm 0 W/m2
21:14 60.4 °F /  15.8 °C 53.2 °F /  11.8 °C 30.27in /  1024.9hPa NE 0.3mph /  0.5km/h 5mph /  8km/h 77% 0.00in /  0mm 0 W/m2
21:19 60.4 °F /  15.8 °C 53.4 °F /  11.9 °C 30.27in /  1024.9hPa NE 0.1mph /  0.2km/h 5mph /  8km/h 77.5% 0.00in /  0mm 0 W/m2
21:24 60.3 °F /  15.7 °C 53.3 °F /  11.8 °C 30.27in /  1024.9hPa Calm   5mph /  8km/h 77.5% 0.00in /  0mm 0 W/m2
21:29 60.3 °F /  15.7 °C 53.3 °F /  11.8 °C 30.27in /  1024.9hPa NE 0.2mph /  0.3km/h 5mph /  8km/h 77.7% 0.00in /  0mm 0 W/m2
21:34 60.3 °F /  15.7 °C 53.4 °F /  11.9 °C 30.27in /  1024.9hPa Calm   5mph /  8km/h 78% 0.00in /  0mm 0 W/m2
21:39 60.2 °F /  15.7 °C 53.3 °F /  11.8 °C 30.27in /  1024.9hPa East 0.7mph /  1.1km/h 5mph /  8km/h 78% 0.00in /  0mm 0 W/m2
21:44 60.2 °F /  15.7 °C 53.3 °F /  11.8 °C 30.27in /  1024.9hPa ENE 0.5mph /  0.8km/h 5mph /  8km/h 78% 0.00in /  0mm 0 W/m2
21:49 60.2 °F /  15.7 °C 53.4 °F /  11.9 °C 30.27in /  1024.9hPa Calm   5mph /  8km/h 78.2% 0.00in /  0mm 0 W/m2
21:54 60.1 °F /  15.6 °C 53.4 °F /  11.9 °C 30.26in /  1024.6hPa ENE 1.3mph /  2.1km/h 5mph /  8km/h 78.4% 0.00in /  0mm 0 W/m2
21:59 60.1 °F /  15.6 °C 53.6 °F /  12 °C 30.27in /  1024.9hPa ENE 0.4mph /  0.6km/h 5mph /  8km/h 79% 0.00in /  0mm 0 W/m2
22:04 60 °F /  15.6 °C 53.3 °F /  11.8 °C 30.27in /  1024.9hPa East 2.1mph /  3.4km/h 7mph /  11.3km/h 78.4% 0.00in /  0mm 0 W/m2
22:09 60 °F /  15.6 °C 53.2 °F /  11.8 °C 30.27in /  1024.9hPa ENE 1.4mph /  2.3km/h 7mph /  11.3km/h 78.3% 0.00in /  0mm 0 W/m2
22:14 60 °F /  15.6 °C 53.5 °F /  11.9 °C 30.27in /  1024.9hPa ENE 2.2mph /  3.5km/h 7mph /  11.3km/h 79% 0.00in /  0mm 0 W/m2
22:19 60 °F /  15.6 °C 53.5 °F /  11.9 °C 30.26in /  1024.6hPa East 0.5mph /  0.8km/h 7mph /  11.3km/h 79% 0.00in /  0mm 0 W/m2
22:24 59.9 °F /  15.5 °C 53.4 °F /  11.9 °C 30.26in /  1024.6hPa ENE 1.4mph /  2.3km/h 7mph /  11.3km/h 79% 0.00in /  0mm 0 W/m2
22:29 59.9 °F /  15.5 °C 53.4 °F /  11.9 °C 30.26in /  1024.6hPa ENE 0.8mph /  1.3km/h 7mph /  11.3km/h 79% 0.00in /  0mm 0 W/m2
22:34 59.9 °F /  15.5 °C 53.4 °F /  11.9 °C 30.26in /  1024.6hPa NE 1.5mph /  2.4km/h 7mph /  11.3km/h 79% 0.00in /  0mm 0 W/m2
22:39 59.9 °F /  15.5 °C 53.4 °F /  11.9 °C 30.26in /  1024.6hPa ENE 0.2mph /  0.3km/h 6mph /  9.7km/h 79% 0.00in /  0mm 0 W/m2
22:44 59.8 °F /  15.4 °C 53.6 °F /  12 °C 30.26in /  1024.6hPa ENE 0.5mph /  0.8km/h 6mph /  9.7km/h 79.8% 0.00in /  0mm 0 W/m2
22:49 59.8 °F /  15.4 °C 53.6 °F /  12 °C 30.26in /  1024.6hPa NE 0.6mph /  1km/h 6mph /  9.7km/h 80% 0.00in /  0mm 0 W/m2
22:54 59.7 °F /  15.4 °C 53.6 °F /  12 °C 30.26in /  1024.6hPa NE 0.6mph /  1km/h 6mph /  9.7km/h 80% 0.00in /  0mm 0 W/m2
22:59 59.7 °F /  15.4 °C 53.5 °F /  11.9 °C 30.26in /  1024.6hPa NE 0.5mph /  0.8km/h 6mph /  9.7km/h 80% 0.00in /  0mm 0 W/m2
23:04 59.6 °F /  15.3 °C 53.5 °F /  11.9 °C 30.26in /  1024.6hPa NE 0.3mph /  0.5km/h 4mph /  6.4km/h 80% 0.00in /  0mm 0 W/m2
23:09 59.6 °F /  15.3 °C 53.4 °F /  11.9 °C 30.26in /  1024.6hPa NE 0.7mph /  1.1km/h 5mph /  8km/h 80% 0.00in /  0mm 0 W/m2
23:14 59.6 °F /  15.3 °C 53.4 °F /  11.9 °C 30.26in /  1024.6hPa NE 1mph /  1.6km/h 5mph /  8km/h 80% 0.00in /  0mm 0 W/m2
23:19 59.6 °F /  15.3 °C 53.7 °F /  12.1 °C 30.25in /  1024.3hPa NE 0.2mph /  0.3km/h 5mph /  8km/h 80.8% 0.00in /  0mm 0 W/m2
23:24 59.5 °F /  15.3 °C 53.7 °F /  12.1 °C 30.25in /  1024.3hPa NE 0.6mph /  1km/h 5mph /  8km/h 81% 0.00in /  0mm 0 W/m2
23:29 59.4 °F /  15.2 °C 53.6 °F /  12 °C 30.25in /  1024.3hPa Calm   5mph /  8km/h 81% 0.00in /  0mm 0 W/m2
23:34 59.4 °F /  15.2 °C 53.6 °F /  12 °C 30.25in /  1024.3hPa NE 0.8mph /  1.3km/h 5mph /  8km/h 81% 0.00in /  0mm 0 W/m2
23:39 59.3 °F /  15.2 °C 53.5 °F /  11.9 °C 30.25in /  1024.3hPa NE 0.1mph /  0.2km/h 4mph /  6.4km/h 81% 0.00in /  0mm 0 W/m2
23:44 59.3 °F /  15.2 °C 53.5 °F /  11.9 °C 30.25in /  1024.3hPa ENE 0.2mph /  0.3km/h 4mph /  6.4km/h 81% 0.00in /  0mm 0 W/m2
23:49 59.3 °F /  15.2 °C 53.7 °F /  12.1 °C 30.26in /  1024.6hPa Calm   4mph /  6.4km/h 81.7% 0.00in /  0mm 0 W/m2
23:54 59.2 °F /  15.1 °C 53.7 °F /  12.1 °C 30.26in /  1024.6hPa ENE 0.2mph /  0.3km/h 4mph /  6.4km/h 82% 0.00in /  0mm 0 W/m2
23:59 59.2 °F /  15.1 °C 53.7 °F /  12.1 °C 30.26in /  1024.6hPa ENE 0.1mph /  0.2km/h 4mph /  6.4km/h 82% 0.00in /  0mm 0 W/m2
Hartford County Weather
Compliments of Weather Underground - 2 mb